sensor_id;sensor_type;location;lat;lon;timestamp;P1;durP1;ratioP1;P2;durP2;ratioP2
49548;SDS011;35450;44.518;7.466;2023-04-07T00:01:34;30.40;;;19.05;;
49548;SDS011;35450;44.518;7.466;2023-04-07T00:04:38;28.58;;;18.73;;
49548;SDS011;35450;44.518;7.466;2023-04-07T00:07:42;29.50;;;19.38;;
49548;SDS011;35450;44.518;7.466;2023-04-07T00:10:46;28.08;;;19.08;;
49548;SDS011;35450;44.518;7.466;2023-04-07T00:13:50;32.40;;;20.00;;
49548;SDS011;35450;44.518;7.466;2023-04-07T00:16:54;29.60;;;20.52;;
49548;SDS011;35450;44.518;7.466;2023-04-07T00:19:58;34.47;;;20.30;;
49548;SDS011;35450;44.518;7.466;2023-04-07T00:23:01;35.47;;;20.33;;
49548;SDS011;35450;44.518;7.466;2023-04-07T00:26:05;32.20;;;20.48;;
49548;SDS011;35450;44.518;7.466;2023-04-07T00:29:09;30.92;;;18.75;;
49548;SDS011;35450;44.518;7.466;2023-04-07T00:32:13;31.65;;;19.85;;
49548;SDS011;35450;44.518;7.466;2023-04-07T00:35:17;38.97;;;21.00;;
49548;SDS011;35450;44.518;7.466;2023-04-07T00:38:21;33.08;;;20.05;;
49548;SDS011;35450;44.518;7.466;2023-04-07T00:41:25;26.40;;;18.58;;
49548;SDS011;35450;44.518;7.466;2023-04-07T00:44:29;29.83;;;19.83;;
49548;SDS011;35450;44.518;7.466;2023-04-07T00:47:33;29.27;;;18.42;;
49548;SDS011;35450;44.518;7.466;2023-04-07T00:50:37;30.02;;;18.90;;
49548;SDS011;35450;44.518;7.466;2023-04-07T00:53:41;27.23;;;17.85;;
49548;SDS011;35450;44.518;7.466;2023-04-07T00:56:45;27.23;;;16.98;;
49548;SDS011;35450;44.518;7.466;2023-04-07T00:59:49;25.35;;;15.88;;
49548;SDS011;35450;44.518;7.466;2023-04-07T01:02:57;35.15;;;18.42;;
49548;SDS011;35450;44.518;7.466;2023-04-07T01:06:07;24.88;;;17.60;;
49548;SDS011;35450;44.518;7.466;2023-04-07T01:09:20;24.50;;;17.25;;
49548;SDS011;35450;44.518;7.466;2023-04-07T01:15:42;32.00;;;18.52;;
49548;SDS011;35450;44.518;7.466;2023-04-07T01:18:53;29.75;;;17.52;;
49548;SDS011;35450;44.518;7.466;2023-04-07T01:21:59;28.42;;;19.45;;
49548;SDS011;35450;44.518;7.466;2023-04-07T01:25:16;28.38;;;18.88;;
49548;SDS011;35450;44.518;7.466;2023-04-07T01:32:03;29.60;;;19.70;;
49548;SDS011;35450;44.518;7.466;2023-04-07T01:35:11;34.08;;;20.35;;
49548;SDS011;35450;44.518;7.466;2023-04-07T01:38:16;29.05;;;18.73;;
49548;SDS011;35450;44.518;7.466;2023-04-07T01:41:22;29.00;;;19.90;;
49548;SDS011;35450;44.518;7.466;2023-04-07T01:44:27;34.17;;;21.67;;
49548;SDS011;35450;44.518;7.466;2023-04-07T01:47:34;37.53;;;20.17;;
49548;SDS011;35450;44.518;7.466;2023-04-07T01:50:39;27.45;;;18.98;;
49548;SDS011;35450;44.518;7.466;2023-04-07T01:53:44;30.42;;;19.85;;
49548;SDS011;35450;44.518;7.466;2023-04-07T01:56:49;27.92;;;19.63;;
49548;SDS011;35450;44.518;7.466;2023-04-07T01:59:53;41.08;;;22.52;;
49548;SDS011;35450;44.518;7.466;2023-04-07T02:03:04;33.05;;;20.98;;
49548;SDS011;35450;44.518;7.466;2023-04-07T02:06:14;32.40;;;19.73;;
49548;SDS011;35450;44.518;7.466;2023-04-07T02:09:21;32.00;;;20.77;;
49548;SDS011;35450;44.518;7.466;2023-04-07T02:12:29;31.13;;;19.80;;
49548;SDS011;35450;44.518;7.466;2023-04-07T02:15:49;26.35;;;19.00;;
49548;SDS011;35450;44.518;7.466;2023-04-07T02:18:56;29.58;;;20.42;;
49548;SDS011;35450;44.518;7.466;2023-04-07T02:22:05;32.70;;;20.67;;
49548;SDS011;35450;44.518;7.466;2023-04-07T02:28:43;29.60;;;19.70;;
49548;SDS011;35450;44.518;7.466;2023-04-07T02:31:47;30.13;;;20.35;;
49548;SDS011;35450;44.518;7.466;2023-04-07T02:34:51;33.83;;;21.55;;
49548;SDS011;35450;44.518;7.466;2023-04-07T02:37:55;34.28;;;21.13;;
49548;SDS011;35450;44.518;7.466;2023-04-07T02:40:59;34.92;;;21.40;;
49548;SDS011;35450;44.518;7.466;2023-04-07T02:44:06;31.00;;;20.80;;
49548;SDS011;35450;44.518;7.466;2023-04-07T02:47:10;32.80;;;21.42;;
49548;SDS011;35450;44.518;7.466;2023-04-07T02:50:14;33.50;;;19.92;;
49548;SDS011;35450;44.518;7.466;2023-04-07T02:53:17;35.10;;;22.55;;
49548;SDS011;35450;44.518;7.466;2023-04-07T02:56:22;35.38;;;20.02;;
49548;SDS011;35450;44.518;7.466;2023-04-07T02:59:26;32.42;;;20.40;;
49548;SDS011;35450;44.518;7.466;2023-04-07T03:02:30;35.55;;;20.58;;
49548;SDS011;35450;44.518;7.466;2023-04-07T03:05:34;33.78;;;21.08;;
49548;SDS011;35450;44.518;7.466;2023-04-07T03:08:39;44.55;;;21.55;;
49548;SDS011;35450;44.518;7.466;2023-04-07T03:11:44;37.50;;;21.27;;
49548;SDS011;35450;44.518;7.466;2023-04-07T03:14:48;33.75;;;21.02;;
49548;SDS011;35450;44.518;7.466;2023-04-07T03:17:53;29.65;;;19.13;;
49548;SDS011;35450;44.518;7.466;2023-04-07T03:20:57;34.42;;;20.75;;
49548;SDS011;35450;44.518;7.466;2023-04-07T03:24:03;33.55;;;19.75;;
49548;SDS011;35450;44.518;7.466;2023-04-07T03:27:10;34.70;;;21.70;;
49548;SDS011;35450;44.518;7.466;2023-04-07T03:30:21;35.22;;;20.60;;
49548;SDS011;35450;44.518;7.466;2023-04-07T03:33:25;39.65;;;20.77;;
49548;SDS011;35450;44.518;7.466;2023-04-07T03:36:31;34.72;;;21.55;;
49548;SDS011;35450;44.518;7.466;2023-04-07T03:39:38;40.05;;;20.20;;
49548;SDS011;35450;44.518;7.466;2023-04-07T03:42:57;38.25;;;21.50;;
49548;SDS011;35450;44.518;7.466;2023-04-07T03:46:01;36.90;;;21.80;;
49548;SDS011;35450;44.518;7.466;2023-04-07T03:49:06;31.83;;;21.23;;
49548;SDS011;35450;44.518;7.466;2023-04-07T03:52:10;38.88;;;21.63;;
49548;SDS011;35450;44.518;7.466;2023-04-07T03:55:13;41.45;;;23.42;;
49548;SDS011;35450;44.518;7.466;2023-04-07T03:58:18;37.67;;;23.50;;
49548;SDS011;35450;44.518;7.466;2023-04-07T04:01:24;32.20;;;21.95;;
49548;SDS011;35450;44.518;7.466;2023-04-07T04:04:30;37.88;;;23.75;;
49548;SDS011;35450;44.518;7.466;2023-04-07T04:07:35;36.88;;;22.00;;
49548;SDS011;35450;44.518;7.466;2023-04-07T04:10:42;34.22;;;21.00;;
49548;SDS011;35450;44.518;7.466;2023-04-07T04:13:46;31.65;;;21.25;;
49548;SDS011;35450;44.518;7.466;2023-04-07T04:16:50;38.63;;;21.25;;
49548;SDS011;35450;44.518;7.466;2023-04-07T04:20:12;33.58;;;20.25;;
49548;SDS011;35450;44.518;7.466;2023-04-07T04:23:22;35.05;;;21.58;;
49548;SDS011;35450;44.518;7.466;2023-04-07T04:26:29;33.00;;;21.00;;
49548;SDS011;35450;44.518;7.466;2023-04-07T04:29:39;34.78;;;21.58;;
49548;SDS011;35450;44.518;7.466;2023-04-07T04:32:46;32.50;;;21.52;;
49548;SDS011;35450;44.518;7.466;2023-04-07T04:35:53;35.70;;;19.77;;
49548;SDS011;35450;44.518;7.466;2023-04-07T04:38:58;33.10;;;19.33;;
49548;SDS011;35450;44.518;7.466;2023-04-07T04:42:02;36.63;;;21.33;;
49548;SDS011;35450;44.518;7.466;2023-04-07T04:45:11;41.35;;;21.40;;
49548;SDS011;35450;44.518;7.466;2023-04-07T04:48:20;33.70;;;20.73;;
49548;SDS011;35450;44.518;7.466;2023-04-07T04:51:25;33.47;;;21.08;;
49548;SDS011;35450;44.518;7.466;2023-04-07T04:54:34;35.80;;;22.80;;
49548;SDS011;35450;44.518;7.466;2023-04-07T04:57:39;33.58;;;22.08;;
49548;SDS011;35450;44.518;7.466;2023-04-07T05:00:47;36.08;;;21.10;;
49548;SDS011;35450;44.518;7.466;2023-04-07T05:03:51;33.00;;;21.15;;
49548;SDS011;35450;44.518;7.466;2023-04-07T05:07:01;44.58;;;27.45;;
49548;SDS011;35450;44.518;7.466;2023-04-07T05:10:08;41.13;;;25.30;;
49548;SDS011;35450;44.518;7.466;2023-04-07T05:13:15;36.60;;;22.70;;
49548;SDS011;35450;44.518;7.466;2023-04-07T05:16:19;34.25;;;21.02;;
49548;SDS011;35450;44.518;7.466;2023-04-07T05:19:24;37.20;;;20.65;;
49548;SDS011;35450;44.518;7.466;2023-04-07T05:22:31;36.53;;;21.73;;
49548;SDS011;35450;44.518;7.466;2023-04-07T05:25:35;31.73;;;19.27;;
49548;SDS011;35450;44.518;7.466;2023-04-07T05:28:41;27.63;;;18.33;;
49548;SDS011;35450;44.518;7.466;2023-04-07T05:31:52;29.63;;;19.60;;
49548;SDS011;35450;44.518;7.466;2023-04-07T05:34:58;32.58;;;21.33;;
49548;SDS011;35450;44.518;7.466;2023-04-07T05:38:07;29.00;;;20.45;;
49548;SDS011;35450;44.518;7.466;2023-04-07T05:41:13;37.90;;;20.65;;
49548;SDS011;35450;44.518;7.466;2023-04-07T05:44:18;29.27;;;19.63;;
49548;SDS011;35450;44.518;7.466;2023-04-07T05:47:22;36.65;;;20.65;;
49548;SDS011;35450;44.518;7.466;2023-04-07T05:50:27;33.03;;;18.73;;
49548;SDS011;35450;44.518;7.466;2023-04-07T05:53:33;31.40;;;20.65;;
49548;SDS011;35450;44.518;7.466;2023-04-07T05:56:37;34.17;;;20.65;;
49548;SDS011;35450;44.518;7.466;2023-04-07T05:59:42;30.75;;;19.88;;
49548;SDS011;35450;44.518;7.466;2023-04-07T06:02:46;37.55;;;20.20;;
49548;SDS011;35450;44.518;7.466;2023-04-07T06:05:56;31.58;;;21.10;;
49548;SDS011;35450;44.518;7.466;2023-04-07T06:09:01;31.90;;;20.10;;
49548;SDS011;35450;44.518;7.466;2023-04-07T06:12:05;39.75;;;22.08;;
49548;SDS011;35450;44.518;7.466;2023-04-07T06:15:10;39.92;;;22.42;;
49548;SDS011;35450;44.518;7.466;2023-04-07T06:18:15;31.50;;;20.05;;
49548;SDS011;35450;44.518;7.466;2023-04-07T06:21:18;36.53;;;22.13;;
49548;SDS011;35450;44.518;7.466;2023-04-07T06:24:23;44.22;;;23.23;;
49548;SDS011;35450;44.518;7.466;2023-04-07T06:27:27;40.25;;;22.65;;
49548;SDS011;35450;44.518;7.466;2023-04-07T06:30:33;36.10;;;21.90;;
49548;SDS011;35450;44.518;7.466;2023-04-07T06:33:37;39.30;;;23.55;;
49548;SDS011;35450;44.518;7.466;2023-04-07T06:36:41;46.17;;;23.25;;
49548;SDS011;35450;44.518;7.466;2023-04-07T06:39:45;37.03;;;21.90;;
49548;SDS011;35450;44.518;7.466;2023-04-07T06:42:50;33.97;;;19.83;;
49548;SDS011;35450;44.518;7.466;2023-04-07T06:46:02;36.55;;;19.20;;
49548;SDS011;35450;44.518;7.466;2023-04-07T06:49:06;31.95;;;19.48;;
49548;SDS011;35450;44.518;7.466;2023-04-07T06:52:10;32.50;;;18.95;;
49548;SDS011;35450;44.518;7.466;2023-04-07T06:55:14;30.42;;;18.13;;
49548;SDS011;35450;44.518;7.466;2023-04-07T06:58:19;31.80;;;18.83;;
49548;SDS011;35450;44.518;7.466;2023-04-07T07:01:23;32.97;;;18.67;;
49548;SDS011;35450;44.518;7.466;2023-04-07T07:04:27;37.65;;;19.77;;
49548;SDS011;35450;44.518;7.466;2023-04-07T07:07:31;33.67;;;19.90;;
49548;SDS011;35450;44.518;7.466;2023-04-07T07:10:35;38.03;;;20.13;;
49548;SDS011;35450;44.518;7.466;2023-04-07T07:13:39;30.85;;;19.02;;
49548;SDS011;35450;44.518;7.466;2023-04-07T07:16:43;35.75;;;19.23;;
49548;SDS011;35450;44.518;7.466;2023-04-07T07:19:47;41.08;;;19.83;;
49548;SDS011;35450;44.518;7.466;2023-04-07T07:22:51;35.20;;;20.02;;
49548;SDS011;35450;44.518;7.466;2023-04-07T07:25:55;34.97;;;20.48;;
49548;SDS011;35450;44.518;7.466;2023-04-07T07:28:59;33.40;;;20.42;;
49548;SDS011;35450;44.518;7.466;2023-04-07T07:32:03;36.70;;;20.08;;
49548;SDS011;35450;44.518;7.466;2023-04-07T07:35:08;36.80;;;21.65;;
49548;SDS011;35450;44.518;7.466;2023-04-07T07:38:12;36.10;;;19.60;;
49548;SDS011;35450;44.518;7.466;2023-04-07T07:41:15;37.15;;;20.90;;
49548;SDS011;35450;44.518;7.466;2023-04-07T07:44:19;36.47;;;21.98;;
49548;SDS011;35450;44.518;7.466;2023-04-07T07:47:25;44.00;;;21.70;;
49548;SDS011;35450;44.518;7.466;2023-04-07T07:50:29;40.15;;;23.50;;
49548;SDS011;35450;44.518;7.466;2023-04-07T07:53:34;36.97;;;21.90;;
49548;SDS011;35450;44.518;7.466;2023-04-07T07:56:38;34.90;;;21.00;;
49548;SDS011;35450;44.518;7.466;2023-04-07T07:59:42;48.35;;;23.02;;
49548;SDS011;35450;44.518;7.466;2023-04-07T08:02:46;46.28;;;23.08;;
49548;SDS011;35450;44.518;7.466;2023-04-07T08:05:50;40.13;;;21.50;;
49548;SDS011;35450;44.518;7.466;2023-04-07T08:08:54;39.92;;;22.50;;
49548;SDS011;35450;44.518;7.466;2023-04-07T08:11:58;41.08;;;23.05;;
49548;SDS011;35450;44.518;7.466;2023-04-07T08:15:03;42.58;;;22.13;;
49548;SDS011;35450;44.518;7.466;2023-04-07T08:18:07;39.63;;;21.52;;
49548;SDS011;35450;44.518;7.466;2023-04-07T08:21:11;47.67;;;22.95;;
49548;SDS011;35450;44.518;7.466;2023-04-07T08:24:15;42.70;;;23.73;;
49548;SDS011;35450;44.518;7.466;2023-04-07T08:27:19;40.72;;;22.02;;
49548;SDS011;35450;44.518;7.466;2023-04-07T08:30:23;43.70;;;22.20;;
49548;SDS011;35450;44.518;7.466;2023-04-07T08:33:27;40.92;;;22.40;;
49548;SDS011;35450;44.518;7.466;2023-04-07T08:36:32;51.90;;;22.98;;
49548;SDS011;35450;44.518;7.466;2023-04-07T08:39:37;40.47;;;22.45;;
49548;SDS011;35450;44.518;7.466;2023-04-07T08:42:41;38.33;;;23.45;;
49548;SDS011;35450;44.518;7.466;2023-04-07T08:45:51;39.45;;;22.23;;
49548;SDS011;35450;44.518;7.466;2023-04-07T08:48:58;37.13;;;22.05;;
49548;SDS011;35450;44.518;7.466;2023-04-07T08:52:04;46.22;;;23.23;;
49548;SDS011;35450;44.518;7.466;2023-04-07T08:55:12;46.25;;;21.77;;
49548;SDS011;35450;44.518;7.466;2023-04-07T08:58:17;40.63;;;23.05;;
49548;SDS011;35450;44.518;7.466;2023-04-07T09:01:22;42.50;;;22.92;;
49548;SDS011;35450;44.518;7.466;2023-04-07T09:04:28;44.17;;;22.20;;
49548;SDS011;35450;44.518;7.466;2023-04-07T09:07:32;44.17;;;23.85;;
49548;SDS011;35450;44.518;7.466;2023-04-07T09:10:40;45.22;;;23.48;;
49548;SDS011;35450;44.518;7.466;2023-04-07T09:13:44;45.08;;;23.70;;
49548;SDS011;35450;44.518;7.466;2023-04-07T09:16:49;50.55;;;24.52;;
49548;SDS011;35450;44.518;7.466;2023-04-07T09:19:56;44.90;;;22.83;;
49548;SDS011;35450;44.518;7.466;2023-04-07T09:23:03;46.35;;;23.98;;
49548;SDS011;35450;44.518;7.466;2023-04-07T09:26:40;46.03;;;23.98;;
49548;SDS011;35450;44.518;7.466;2023-04-07T09:29:39;38.75;;;23.63;;
49548;SDS011;35450;44.518;7.466;2023-04-07T09:32:44;40.13;;;24.23;;
49548;SDS011;35450;44.518;7.466;2023-04-07T09:35:51;46.25;;;25.48;;
49548;SDS011;35450;44.518;7.466;2023-04-07T09:38:56;42.85;;;23.42;;
49548;SDS011;35450;44.518;7.466;2023-04-07T09:42:10;39.45;;;23.45;;
49548;SDS011;35450;44.518;7.466;2023-04-07T09:45:36;36.95;;;22.88;;
49548;SDS011;35450;44.518;7.466;2023-04-07T09:48:43;40.45;;;22.52;;
49548;SDS011;35450;44.518;7.466;2023-04-07T09:51:54;36.85;;;21.33;;
49548;SDS011;35450;44.518;7.466;2023-04-07T09:55:00;42.42;;;21.15;;
49548;SDS011;35450;44.518;7.466;2023-04-07T09:58:05;38.65;;;22.65;;
49548;SDS011;35450;44.518;7.466;2023-04-07T10:01:14;33.35;;;20.17;;
49548;SDS011;35450;44.518;7.466;2023-04-07T10:04:20;44.70;;;22.08;;
49548;SDS011;35450;44.518;7.466;2023-04-07T10:07:25;39.92;;;19.90;;
49548;SDS011;35450;44.518;7.466;2023-04-07T10:10:29;37.47;;;19.85;;
49548;SDS011;35450;44.518;7.466;2023-04-07T10:13:34;34.30;;;20.27;;
49548;SDS011;35450;44.518;7.466;2023-04-07T10:16:40;35.55;;;20.83;;
49548;SDS011;35450;44.518;7.466;2023-04-07T10:19:48;39.00;;;19.92;;
49548;SDS011;35450;44.518;7.466;2023-04-07T10:22:56;36.08;;;19.85;;
49548;SDS011;35450;44.518;7.466;2023-04-07T10:26:07;32.45;;;19.33;;
49548;SDS011;35450;44.518;7.466;2023-04-07T10:29:12;29.77;;;17.20;;
49548;SDS011;35450;44.518;7.466;2023-04-07T10:32:18;31.58;;;18.48;;
49548;SDS011;35450;44.518;7.466;2023-04-07T10:35:22;30.85;;;18.35;;
49548;SDS011;35450;44.518;7.466;2023-04-07T10:38:26;25.30;;;17.42;;
49548;SDS011;35450;44.518;7.466;2023-04-07T10:41:38;31.70;;;17.95;;
49548;SDS011;35450;44.518;7.466;2023-04-07T10:44:45;35.38;;;19.25;;
49548;SDS011;35450;44.518;7.466;2023-04-07T10:54:14;23.35;;;15.15;;
49548;SDS011;35450;44.518;7.466;2023-04-07T10:57:23;21.15;;;14.43;;
49548;SDS011;35450;44.518;7.466;2023-04-07T11:00:27;26.65;;;14.13;;
49548;SDS011;35450;44.518;7.466;2023-04-07T11:03:32;19.70;;;13.90;;
49548;SDS011;35450;44.518;7.466;2023-04-07T11:06:47;23.58;;;13.82;;
49548;SDS011;35450;44.518;7.466;2023-04-07T11:10:07;23.90;;;14.32;;
49548;SDS011;35450;44.518;7.466;2023-04-07T11:13:12;23.67;;;13.30;;
49548;SDS011;35450;44.518;7.466;2023-04-07T11:16:17;24.38;;;13.93;;
49548;SDS011;35450;44.518;7.466;2023-04-07T11:19:22;19.90;;;14.48;;
49548;SDS011;35450;44.518;7.466;2023-04-07T11:22:26;23.00;;;15.93;;
49548;SDS011;35450;44.518;7.466;2023-04-07T11:25:30;24.95;;;14.85;;
49548;SDS011;35450;44.518;7.466;2023-04-07T11:28:36;23.35;;;13.50;;
49548;SDS011;35450;44.518;7.466;2023-04-07T11:31:51;24.58;;;13.48;;
49548;SDS011;35450;44.518;7.466;2023-04-07T11:34:54;17.67;;;12.88;;
49548;SDS011;35450;44.518;7.466;2023-04-07T11:37:59;19.30;;;13.38;;
49548;SDS011;35450;44.518;7.466;2023-04-07T11:41:10;16.45;;;11.77;;
49548;SDS011;35450;44.518;7.466;2023-04-07T11:44:16;18.48;;;12.85;;
49548;SDS011;35450;44.518;7.466;2023-04-07T11:47:20;25.90;;;12.30;;
49548;SDS011;35450;44.518;7.466;2023-04-07T11:50:40;20.25;;;12.85;;
49548;SDS011;35450;44.518;7.466;2023-04-07T11:53:45;17.35;;;11.32;;
49548;SDS011;35450;44.518;7.466;2023-04-07T11:56:52;17.02;;;12.30;;
49548;SDS011;35450;44.518;7.466;2023-04-07T12:00:08;14.43;;;11.15;;
49548;SDS011;35450;44.518;7.466;2023-04-07T12:03:14;21.45;;;10.90;;
49548;SDS011;35450;44.518;7.466;2023-04-07T12:06:28;14.85;;;10.52;;
49548;SDS011;35450;44.518;7.466;2023-04-07T12:09:37;15.63;;;11.07;;
49548;SDS011;35450;44.518;7.466;2023-04-07T12:12:43;18.60;;;12.38;;
49548;SDS011;35450;44.518;7.466;2023-04-07T12:15:48;19.23;;;11.75;;
49548;SDS011;35450;44.518;7.466;2023-04-07T12:18:52;16.02;;;10.55;;
49548;SDS011;35450;44.518;7.466;2023-04-07T12:21:57;13.15;;;10.73;;
49548;SDS011;35450;44.518;7.466;2023-04-07T12:25:01;17.75;;;11.32;;
49548;SDS011;35450;44.518;7.466;2023-04-07T12:28:05;13.73;;;10.18;;
49548;SDS011;35450;44.518;7.466;2023-04-07T12:31:09;17.08;;;10.98;;
49548;SDS011;35450;44.518;7.466;2023-04-07T12:34:13;19.58;;;10.43;;
49548;SDS011;35450;44.518;7.466;2023-04-07T12:37:18;16.05;;;10.80;;
49548;SDS011;35450;44.518;7.466;2023-04-07T12:40:22;14.80;;;10.38;;
49548;SDS011;35450;44.518;7.466;2023-04-07T12:43:26;19.75;;;10.68;;
49548;SDS011;35450;44.518;7.466;2023-04-07T12:46:31;17.67;;;9.50;;
49548;SDS011;35450;44.518;7.466;2023-04-07T12:49:35;22.77;;;11.32;;
49548;SDS011;35450;44.518;7.466;2023-04-07T12:52:39;16.92;;;10.13;;
49548;SDS011;35450;44.518;7.466;2023-04-07T12:55:44;21.92;;;11.75;;
49548;SDS011;35450;44.518;7.466;2023-04-07T12:58:50;28.20;;;11.40;;
49548;SDS011;35450;44.518;7.466;2023-04-07T13:01:56;11.85;;;9.40;;
49548;SDS011;35450;44.518;7.466;2023-04-07T13:05:02;22.77;;;10.30;;
49548;SDS011;35450;44.518;7.466;2023-04-07T13:08:07;23.75;;;9.38;;
49548;SDS011;35450;44.518;7.466;2023-04-07T13:11:11;19.33;;;9.02;;
49548;SDS011;35450;44.518;7.466;2023-04-07T13:14:15;11.95;;;7.72;;
49548;SDS011;35450;44.518;7.466;2023-04-07T13:17:19;11.90;;;6.20;;
49548;SDS011;35450;44.518;7.466;2023-04-07T13:20:23;12.55;;;7.82;;
49548;SDS011;35450;44.518;7.466;2023-04-07T13:23:30;12.88;;;9.20;;
49548;SDS011;35450;44.518;7.466;2023-04-07T13:26:34;10.00;;;6.95;;
49548;SDS011;35450;44.518;7.466;2023-04-07T13:29:38;9.48;;;5.30;;
49548;SDS011;35450;44.518;7.466;2023-04-07T13:32:42;9.75;;;5.00;;
49548;SDS011;35450;44.518;7.466;2023-04-07T13:35:46;14.43;;;5.63;;
49548;SDS011;35450;44.518;7.466;2023-04-07T13:38:50;10.00;;;5.68;;
49548;SDS011;35450;44.518;7.466;2023-04-07T13:41:54;13.93;;;6.00;;
49548;SDS011;35450;44.518;7.466;2023-04-07T13:44:58;12.05;;;6.40;;
49548;SDS011;35450;44.518;7.466;2023-04-07T13:48:03;9.77;;;6.60;;
49548;SDS011;35450;44.518;7.466;2023-04-07T13:51:07;11.88;;;6.45;;
49548;SDS011;35450;44.518;7.466;2023-04-07T13:54:13;9.45;;;6.70;;
49548;SDS011;35450;44.518;7.466;2023-04-07T13:57:16;13.98;;;6.55;;
49548;SDS011;35450;44.518;7.466;2023-04-07T14:00:23;11.20;;;6.90;;
49548;SDS011;35450;44.518;7.466;2023-04-07T14:03:26;12.93;;;7.72;;
49548;SDS011;35450;44.518;7.466;2023-04-07T14:06:30;13.02;;;7.63;;
49548;SDS011;35450;44.518;7.466;2023-04-07T14:09:35;10.60;;;8.23;;
49548;SDS011;35450;44.518;7.466;2023-04-07T14:12:39;12.55;;;7.65;;
49548;SDS011;35450;44.518;7.466;2023-04-07T14:15:44;14.43;;;7.40;;
49548;SDS011;35450;44.518;7.466;2023-04-07T14:18:48;21.95;;;6.88;;
49548;SDS011;35450;44.518;7.466;2023-04-07T14:21:54;19.25;;;7.65;;
49548;SDS011;35450;44.518;7.466;2023-04-07T14:24:57;9.70;;;6.65;;
49548;SDS011;35450;44.518;7.466;2023-04-07T14:28:01;15.07;;;8.15;;
49548;SDS011;35450;44.518;7.466;2023-04-07T14:31:05;12.93;;;7.43;;
49548;SDS011;35450;44.518;7.466;2023-04-07T14:34:13;15.63;;;7.80;;
49548;SDS011;35450;44.518;7.466;2023-04-07T14:37:18;17.55;;;7.35;;
49548;SDS011;35450;44.518;7.466;2023-04-07T14:40:26;10.05;;;6.53;;
49548;SDS011;35450;44.518;7.466;2023-04-07T14:43:30;18.00;;;6.00;;
49548;SDS011;35450;44.518;7.466;2023-04-07T14:46:34;8.77;;;4.85;;
49548;SDS011;35450;44.518;7.466;2023-04-07T14:49:38;13.52;;;4.75;;
49548;SDS011;35450;44.518;7.466;2023-04-07T14:52:43;9.32;;;5.30;;
49548;SDS011;35450;44.518;7.466;2023-04-07T14:55:47;9.38;;;4.90;;
49548;SDS011;35450;44.518;7.466;2023-04-07T14:58:51;4.22;;;3.60;;
49548;SDS011;35450;44.518;7.466;2023-04-07T15:01:55;5.75;;;4.18;;
49548;SDS011;35450;44.518;7.466;2023-04-07T15:04:59;7.63;;;4.43;;
49548;SDS011;35450;44.518;7.466;2023-04-07T15:08:03;7.13;;;4.25;;
49548;SDS011;35450;44.518;7.466;2023-04-07T15:11:08;11.32;;;4.25;;
49548;SDS011;35450;44.518;7.466;2023-04-07T15:14:12;11.23;;;4.22;;
49548;SDS011;35450;44.518;7.466;2023-04-07T15:17:17;8.73;;;4.63;;
49548;SDS011;35450;44.518;7.466;2023-04-07T15:20:21;5.03;;;3.83;;
49548;SDS011;35450;44.518;7.466;2023-04-07T15:23:25;13.60;;;4.30;;
49548;SDS011;35450;44.518;7.466;2023-04-07T15:26:29;6.32;;;4.03;;
49548;SDS011;35450;44.518;7.466;2023-04-07T15:29:34;7.75;;;2.80;;
49548;SDS011;35450;44.518;7.466;2023-04-07T15:32:39;10.85;;;3.10;;
49548;SDS011;35450;44.518;7.466;2023-04-07T15:35:43;7.88;;;3.90;;
49548;SDS011;35450;44.518;7.466;2023-04-07T15:38:48;4.97;;;2.80;;
49548;SDS011;35450;44.518;7.466;2023-04-07T15:41:52;2.78;;;2.28;;
49548;SDS011;35450;44.518;7.466;2023-04-07T15:44:56;6.47;;;3.03;;
49548;SDS011;35450;44.518;7.466;2023-04-07T15:47:59;5.88;;;2.60;;
49548;SDS011;35450;44.518;7.466;2023-04-07T15:51:04;3.83;;;2.80;;
49548;SDS011;35450;44.518;7.466;2023-04-07T15:54:08;3.58;;;2.92;;
49548;SDS011;35450;44.518;7.466;2023-04-07T15:57:12;5.72;;;4.50;;
49548;SDS011;35450;44.518;7.466;2023-04-07T16:00:19;8.60;;;3.92;;
49548;SDS011;35450;44.518;7.466;2023-04-07T16:03:24;8.30;;;4.05;;
49548;SDS011;35450;44.518;7.466;2023-04-07T16:06:29;4.30;;;3.58;;
49548;SDS011;35450;44.518;7.466;2023-04-07T16:09:33;10.30;;;4.63;;
49548;SDS011;35450;44.518;7.466;2023-04-07T16:12:38;8.60;;;4.70;;
49548;SDS011;35450;44.518;7.466;2023-04-07T16:15:42;12.05;;;4.05;;
49548;SDS011;35450;44.518;7.466;2023-04-07T16:18:46;7.50;;;4.47;;
49548;SDS011;35450;44.518;7.466;2023-04-07T16:21:50;4.90;;;3.85;;
49548;SDS011;35450;44.518;7.466;2023-04-07T16:24:55;8.88;;;4.20;;
49548;SDS011;35450;44.518;7.466;2023-04-07T16:27:59;5.47;;;4.57;;
49548;SDS011;35450;44.518;7.466;2023-04-07T16:31:03;6.53;;;4.78;;
49548;SDS011;35450;44.518;7.466;2023-04-07T16:34:11;10.77;;;7.50;;
49548;SDS011;35450;44.518;7.466;2023-04-07T16:37:15;10.60;;;7.78;;
49548;SDS011;35450;44.518;7.466;2023-04-07T16:40:19;12.38;;;9.55;;
49548;SDS011;35450;44.518;7.466;2023-04-07T16:43:23;37.83;;;25.23;;
49548;SDS011;35450;44.518;7.466;2023-04-07T16:46:28;15.20;;;10.60;;
49548;SDS011;35450;44.518;7.466;2023-04-07T16:49:32;12.52;;;9.85;;
49548;SDS011;35450;44.518;7.466;2023-04-07T16:52:36;17.17;;;12.73;;
49548;SDS011;35450;44.518;7.466;2023-04-07T16:55:40;17.98;;;11.57;;
49548;SDS011;35450;44.518;7.466;2023-04-07T16:58:44;18.40;;;11.90;;
49548;SDS011;35450;44.518;7.466;2023-04-07T17:01:49;17.33;;;11.23;;
49548;SDS011;35450;44.518;7.466;2023-04-07T17:04:53;18.00;;;12.60;;
49548;SDS011;35450;44.518;7.466;2023-04-07T17:07:57;17.38;;;13.15;;
49548;SDS011;35450;44.518;7.466;2023-04-07T17:11:04;18.38;;;13.32;;
49548;SDS011;35450;44.518;7.466;2023-04-07T17:14:09;22.90;;;14.27;;
49548;SDS011;35450;44.518;7.466;2023-04-07T17:17:13;20.35;;;14.35;;
49548;SDS011;35450;44.518;7.466;2023-04-07T17:20:17;17.88;;;12.50;;
49548;SDS011;35450;44.518;7.466;2023-04-07T17:23:21;25.63;;;15.93;;
49548;SDS011;35450;44.518;7.466;2023-04-07T17:26:25;26.77;;;17.10;;
49548;SDS011;35450;44.518;7.466;2023-04-07T17:29:29;16.15;;;12.00;;
49548;SDS011;35450;44.518;7.466;2023-04-07T17:32:33;15.45;;;10.48;;
49548;SDS011;35450;44.518;7.466;2023-04-07T17:35:38;27.30;;;18.10;;
49548;SDS011;35450;44.518;7.466;2023-04-07T17:38:43;16.38;;;11.68;;
49548;SDS011;35450;44.518;7.466;2023-04-07T17:41:47;10.70;;;8.52;;
49548;SDS011;35450;44.518;7.466;2023-04-07T17:44:52;9.82;;;7.68;;
49548;SDS011;35450;44.518;7.466;2023-04-07T17:47:56;12.77;;;7.30;;
49548;SDS011;35450;44.518;7.466;2023-04-07T17:51:00;10.70;;;6.68;;
49548;SDS011;35450;44.518;7.466;2023-04-07T17:54:04;10.98;;;7.53;;
49548;SDS011;35450;44.518;7.466;2023-04-07T17:57:08;15.05;;;9.18;;
49548;SDS011;35450;44.518;7.466;2023-04-07T18:00:13;16.52;;;9.40;;
49548;SDS011;35450;44.518;7.466;2023-04-07T18:03:18;9.38;;;6.63;;
49548;SDS011;35450;44.518;7.466;2023-04-07T18:06:22;12.70;;;8.85;;
49548;SDS011;35450;44.518;7.466;2023-04-07T18:09:26;9.48;;;7.13;;
49548;SDS011;35450;44.518;7.466;2023-04-07T18:12:30;12.85;;;7.43;;
49548;SDS011;35450;44.518;7.466;2023-04-07T18:15:34;9.18;;;6.15;;
49548;SDS011;35450;44.518;7.466;2023-04-07T18:18:38;16.42;;;7.93;;
49548;SDS011;35450;44.518;7.466;2023-04-07T18:21:42;29.05;;;13.52;;
49548;SDS011;35450;44.518;7.466;2023-04-07T18:24:46;9.15;;;5.63;;
49548;SDS011;35450;44.518;7.466;2023-04-07T18:27:50;6.70;;;5.35;;